Terminal Aerodrome Forecast
Issued by NWS Spokane, WA

Home | Current Version | Previous Version | Text Only | Print | Product List | Glossary On
Versions: 1 2 3 4 5 6 7 8 9 10 11 12 13 14 15 16 17 18 19 20 21
000
FTUS46 KOTX 302335
TAFGEG
TAF
KGEG 302335Z 3100/3124 06008KT P6SM FEW080 BKN100 OVC200
     FM310900 16006KT P6SM BKN120 OVC250
     FM311600 11006KT P6SM VCSH BKN050 OVC100
     FM312000 21012KT P6SM -RA BKN040 OVC070=

USA.gov is the U.S. government's official web portal to all federal, state and local government web resources and services.